• Join FlightAware (Why Join?)
  • Login
  • US Flag 
06:54PM EDT


 

Airport Tracker/Info


-or-


 

Live Flight TrackerFlight Track Log ✈ VRT51 ✈ 11-Oct-2013 ✈ KBNA - KSTP

Flight Track Log - Related Links

Times and Time Zones

All times are in EDT time to prevent confusion due to time zone crossing. See the VRT51 flight status page for this flight to view local times or setup timezone preferences in your user account.

Time Position Orientation Groundspeed Altitude Reporting Facility
EDT Latitude Longitude Course Direction KTS MPH feet Rate Location/Type
04:08PM 36.1000 -86.6833 253° West 183 211 1,300  Level Nashville TRACON
04:09PM 36.0833 -86.7500 253° West 211 243 4,000 2,820 Climbing Nashville TRACON
04:10PM 36.1333 -86.8000 321° Northwest 219 252 7,000 2,520 Climbing Nashville TRACON
04:11PM 36.1833 -86.8500 321° Northwest 287 330 8,900 2,160 Climbing Nashville TRACON
04:11PM 36.2122 -86.8894 312° West 294 338 10,400 2,160 Climbing Memphis Center
04:12PM 36.2811 -86.9714 316° Northwest 331 381 12,500 2,520 Climbing Memphis Center
04:13PM 36.3672 -87.0683 318° Northwest 357 411 15,500 3,000 Climbing Memphis Center
04:14PM 36.4489 -87.1606 318° Northwest 382 440 18,500 2,700 Climbing Memphis Center
04:15PM 36.5244 -87.2633 312° West 398 458 20,900 1,620 Climbing Memphis Center
04:16PM 36.6039 -87.3639 315° West 413 475 21,800 540 Climbing Memphis Center
04:17PM 36.6900 -87.4744 314° West 420 483 22,000 600 Climbing Memphis Center
04:18PM 36.7717 -87.5828 313° West 427 491 23,000 1,380 Climbing Memphis Center
04:19PM 36.8756 -87.6725 325° Northwest 440 506 24,800 1,740 Climbing Memphis Center
04:20PM 36.9808 -87.7236 339° North 447 514 26,500 1,800 Climbing Memphis Center
04:21PM 37.0967 -87.7822 338° Northwest 447 514 28,500 1,860 Climbing Memphis Center
04:22PM 37.2106 -87.8383 339° North 441 507 30,300 1,620 Climbing Memphis Center
04:23PM 37.3264 -87.9025 336° Northwest 440 506 31,800 1,140 Climbing Memphis Center
04:24PM 37.3892 -87.9786 316° Northwest 450 518 32,200 1,020 Climbing Indianapolis Center
04:25PM 37.4725 -88.0739 318° Northwest 439 505 33,600 1,080 Climbing Indianapolis Center
04:26PM 37.5636 -88.1783 318° Northwest 439 505 34,500 1,560 Climbing Indianapolis Center
04:28PM 37.7989 -88.3333 333° Northwest 423 487 38,700 1,500 Climbing Kansas City Center
04:29PM 37.9036 -88.3842 339° North 411 473 39,400 600 Climbing Kansas City Center
04:30PM 38.0103 -88.4372 339° North 407 468 40,000 240 Climbing Kansas City Center
04:31PM 38.1225 -88.4933 339° North 422 486 40,000  Level Kansas City Center
04:32PM 38.2392 -88.5494 339° North 436 502 40,000  Level Kansas City Center
04:33PM 38.3553 -88.6078 338° Northwest 443 510 40,000 120 Level Kansas City Center
04:35PM 38.4878 -88.6747 338° Northwest 447 514 40,300 600 Climbing Kansas City Center
04:36PM 38.6092 -88.7353 339° North 441 507 41,300 960 Climbing Kansas City Center
04:37PM 38.7106 -88.7872 338° Northwest 434 499 42,300 780 Climbing Kansas City Center
04:38PM 38.8183 -88.8406 339° North 425 489 43,000 300 Climbing Kansas City Center
04:39PM 38.9250 -88.8958 338° Northwest 418 481 43,000  Level Kansas City Center
04:40PM 39.0603 -88.9639 339° North 422 486 43,000  Level Kansas City Center
04:41PM 39.1661 -89.0178 338° Northwest 427 491 43,000  Level Kansas City Center
04:42PM 39.2761 -89.0739 338° Northwest 427 491 43,000  Level Kansas City Center
04:43PM 39.3842 -89.1308 338° Northwest 423 487 43,000  Level Kansas City Center
04:44PM 39.5089 -89.1942 339° North 421 484 43,000  Level Kansas City Center
04:45PM 39.6178 -89.2508 338° Northwest 422 486 43,000  Level Kansas City Center
04:46PM 39.7275 -89.3078 338° Northwest 423 487 43,000  Level Kansas City Center
04:47PM 39.8372 -89.3650 338° Northwest 425 489 43,000  Level Kansas City Center
04:48PM 39.9467 -89.4231 338° Northwest 425 489 43,000  Level Kansas City Center
04:49PM 40.0572 -89.4811 338° Northwest 425 489 43,000  Level Kansas City Center
04:50PM 40.1444 -89.5281 338° Northwest 426 490 43,000  Level Chicago Center
04:51PM 40.2767 -89.5981 338° Northwest 426 490 43,000  Level Chicago Center
04:52PM 40.3875 -89.6564 338° Northwest 429 494 43,000  Level Chicago Center
04:53PM 40.5000 -89.7156 338° Northwest 426 490 43,000  Level Chicago Center
04:54PM 40.6100 -89.7739 338° Northwest 426 490 43,000  Level Chicago Center
04:55PM 40.7228 -89.8353 338° Northwest 433 498 43,000  Level Chicago Center
04:56PM 40.8617 -89.9086 338° Northwest 443 510 43,000  Level Chicago Center
04:57PM 40.9725 -89.9694 337° Northwest 434 499 43,000  Level Chicago Center
04:58PM 41.0725 -90.0231 338° Northwest 434 499 43,000  Level Chicago Center
04:59PM 41.2089 -90.0975 338° Northwest 440 506 43,000  Level Chicago Center
05:00PM 41.3225 -90.1586 338° Northwest 441 507 43,000 -180 Level Chicago Center
05:01PM 41.4367 -90.2214 338° Northwest 444 511 42,700 -1,020 Descending Chicago Center
05:02PM 41.5522 -90.2875 337° Northwest 450 518 41,000 -1,800 Descending Chicago Center
05:03PM 41.6678 -90.3514 338° Northwest 450 518 39,000 -2,280 Descending Chicago Center
05:04PM 41.8050 -90.4150 341° North 453 521 36,300 -1,440 Descending Chicago Center
05:05PM 41.9244 -90.4758 339° North 464 534 36,000 -180 Descending Chicago Center
05:06PM 42.0447 -90.5453 337° Northwest 474 545 36,000  Level Chicago Center
05:07PM 42.0394 -90.5676 337° Northwest  Level FlightAware Approximate
05:07PM 42.1647 -90.6172 336° Northwest 477 549 36,000  Level Chicago Center
05:08PM 42.2847 -90.6850 337° Northwest 475 547 36,000  Level Chicago Center
05:09PM 42.4278 -90.7656 337° Northwest 470 541 36,000 -540 Level Chicago Center
05:10PM 42.5492 -90.8358 337° Northwest 479 551 35,000 -1,020 Descending Chicago Center
05:12PM 42.6694 -90.9050 337° Northwest 475 547 34,000 -1,020 Descending Chicago Center
05:13PM 42.7925 -90.9764 337° Northwest 483 556 33,000 -960 Descending Chicago Center
05:14PM 42.9189 -91.0944 326° Northwest 473 544 32,000 -480 Descending Chicago Center
05:15PM 42.9936 -91.2306 307° West 461 531 32,000  Level Chicago Center
05:16PM 43.0700 -91.3642 308° West 456 525 32,000  Level Chicago Center
05:17PM 43.1481 -91.5011 308° West 463 533 32,000  Level Chicago Center
05:18PM 43.2433 -91.6689 308° West 471 542 32,000  Level Chicago Center
05:19PM 43.3222 -91.8081 308° West 470 541 32,000 -720 Level Chicago Center
05:20PM 43.4483 -92.0303 308° West 469 540 30,200 -1,500 Descending Minneapolis Center
05:21PM 43.5253 -92.1672 308° West 461 531 28,300 -1,920 Descending Minneapolis Center
05:22PM 43.6014 -92.3056 307° West 459 528 26,300 -1,920 Descending Minneapolis Center
05:23PM 43.6783 -92.4436 308° West 458 527 24,300 -1,920 Descending Minneapolis Center
05:24PM 43.7533 -92.5789 308° West 452 520 22,300 -2,040 Descending Minneapolis Center
05:25PM 43.8328 -92.7242 307° West 443 510 20,200 -2,160 Descending Minneapolis Center
05:26PM 43.9033 -92.8547 307° West 426 490 17,900 -2,460 Descending Minneapolis Center
05:28PM 43.9861 -93.0078 307° West 415 478 15,200 -2,280 Descending Minneapolis Center
05:29PM 44.0544 -93.1336 307° West 410 472 13,200 -1,980 Descending Minneapolis Center
05:30PM 44.1164 -93.2494 307° West 374 430 11,200 -1,920 Descending Minneapolis Center
05:31PM 44.1678 -93.3453 307° West 314 361 9,300 -1,680 Descending Minneapolis Center
05:32PM 44.2139 -93.4311 307° West 283 326 7,800 -1,500 Descending Minneapolis Center
05:33PM 44.2967 -93.4642 344° North 330 380 6,200 -1,380 Descending Minneapolis Center
05:34PM 44.3883 -93.4572 North 331 381 5,000 -600 Descending Minneapolis Center
05:35PM 44.4956 -93.4533 North 321 369 5,000 -420 Level Minneapolis Center
05:36PM 44.5864 -93.4506 North 325 374 4,200 -540 Descending Minneapolis Center
05:37PM 44.6717 -93.4483 North 306 352 4,000 -120 Descending Minneapolis Center
05:38PM 44.7542 -93.4250 11° North 301 346 4,000  Level Minneapolis Center
05:39PM 44.8256 -93.3614 32° Northeast 299 344 4,000  Level Minneapolis Center
05:40PM 44.8889 -93.2872 40° Northeast 289 333 4,000 -300 Level Minneapolis Center
05:41PM 44.9461 -93.2106 43° Northeast 281 323 3,500 -600 Descending Minneapolis Center
05:42PM 44.9922 -93.1481 44° Northeast 221 254 2,800 -780 Descending Minneapolis Center
05:43PM 44.9825 -93.1064 108° East 120 138 1,900 -840 Descending Minneapolis Center
05:44PM 44.9525 -93.0789 147° Southeast 107 123 1,100 -480 Descending Minneapolis Center
05:45PM 44.9275 -93.0542 145° Southeast 108 124 1,000 -120 Descending Minneapolis Center
05:47PM 44.9333 -93.0500 North  Level FlightAware Approximate